sensor_id;sensor_type;location;lat;lon;timestamp;P1;durP1;ratioP1;P2;durP2;ratioP2
26098;SDS011;13860;52.370;6.764;2022-08-03T00:03:13;8.60;;;3.40;;
26098;SDS011;13860;52.370;6.764;2022-08-03T00:06:18;8.35;;;3.72;;
26098;SDS011;13860;52.370;6.764;2022-08-03T00:09:28;9.30;;;3.40;;
26098;SDS011;13860;52.370;6.764;2022-08-03T00:12:36;7.10;;;3.17;;
26098;SDS011;13860;52.370;6.764;2022-08-03T00:15:41;5.68;;;3.30;;
26098;SDS011;13860;52.370;6.764;2022-08-03T00:18:47;6.28;;;3.65;;
26098;SDS011;13860;52.370;6.764;2022-08-03T00:21:52;8.27;;;3.30;;
26098;SDS011;13860;52.370;6.764;2022-08-03T00:24:59;7.82;;;3.65;;
26098;SDS011;13860;52.370;6.764;2022-08-03T00:28:04;4.75;;;3.15;;
26098;SDS011;13860;52.370;6.764;2022-08-03T00:31:10;10.30;;;3.78;;
26098;SDS011;13860;52.370;6.764;2022-08-03T00:34:15;6.18;;;3.85;;
26098;SDS011;13860;52.370;6.764;2022-08-03T00:37:39;4.07;;;3.13;;
26098;SDS011;13860;52.370;6.764;2022-08-03T00:40:47;6.45;;;3.70;;
26098;SDS011;13860;52.370;6.764;2022-08-03T00:43:55;5.28;;;3.58;;
26098;SDS011;13860;52.370;6.764;2022-08-03T00:47:00;13.27;;;3.65;;
26098;SDS011;13860;52.370;6.764;2022-08-03T00:50:05;6.30;;;3.60;;
26098;SDS011;13860;52.370;6.764;2022-08-03T00:53:11;6.03;;;3.70;;
26098;SDS011;13860;52.370;6.764;2022-08-03T00:56:21;6.50;;;3.72;;
26098;SDS011;13860;52.370;6.764;2022-08-03T00:59:29;6.03;;;3.67;;
26098;SDS011;13860;52.370;6.764;2022-08-03T01:02:35;6.15;;;3.63;;
26098;SDS011;13860;52.370;6.764;2022-08-03T01:05:45;6.47;;;3.75;;
26098;SDS011;13860;52.370;6.764;2022-08-03T01:08:57;6.63;;;4.03;;
26098;SDS011;13860;52.370;6.764;2022-08-03T01:12:09;6.50;;;3.92;;
26098;SDS011;13860;52.370;6.764;2022-08-03T01:15:23;8.77;;;3.90;;
26098;SDS011;13860;52.370;6.764;2022-08-03T01:18:35;10.25;;;5.15;;
26098;SDS011;13860;52.370;6.764;2022-08-03T01:21:46;9.73;;;4.20;;
26098;SDS011;13860;52.370;6.764;2022-08-03T01:25:05;13.73;;;4.63;;
26098;SDS011;13860;52.370;6.764;2022-08-03T01:28:24;7.35;;;3.60;;
26098;SDS011;13860;52.370;6.764;2022-08-03T01:31:47;4.90;;;3.75;;
26098;SDS011;13860;52.370;6.764;2022-08-03T01:35:20;5.70;;;4.50;;
26098;SDS011;13860;52.370;6.764;2022-08-03T01:38:30;8.10;;;4.20;;
26098;SDS011;13860;52.370;6.764;2022-08-03T01:41:39;12.35;;;4.13;;
26098;SDS011;13860;52.370;6.764;2022-08-03T01:44:49;10.30;;;4.25;;
26098;SDS011;13860;52.370;6.764;2022-08-03T01:47:58;8.77;;;4.30;;
26098;SDS011;13860;52.370;6.764;2022-08-03T01:51:05;9.50;;;4.10;;
26098;SDS011;13860;52.370;6.764;2022-08-03T01:54:11;10.18;;;4.28;;
26098;SDS011;13860;52.370;6.764;2022-08-03T01:57:18;18.63;;;5.00;;
26098;SDS011;13860;52.370;6.764;2022-08-03T02:00:25;13.75;;;5.00;;
26098;SDS011;13860;52.370;6.764;2022-08-03T02:03:35;9.13;;;4.45;;
26098;SDS011;13860;52.370;6.764;2022-08-03T02:07:01;12.65;;;4.15;;
26098;SDS011;13860;52.370;6.764;2022-08-03T02:10:07;7.35;;;4.38;;
26098;SDS011;13860;52.370;6.764;2022-08-03T02:13:14;6.60;;;4.43;;
26098;SDS011;13860;52.370;6.764;2022-08-03T02:16:22;9.63;;;4.47;;
26098;SDS011;13860;52.370;6.764;2022-08-03T02:19:31;8.73;;;4.22;;
26098;SDS011;13860;52.370;6.764;2022-08-03T02:22:38;7.95;;;4.53;;
26098;SDS011;13860;52.370;6.764;2022-08-03T02:25:46;8.18;;;4.68;;
26098;SDS011;13860;52.370;6.764;2022-08-03T02:29:04;7.40;;;4.75;;
26098;SDS011;13860;52.370;6.764;2022-08-03T02:32:15;5.30;;;4.25;;
26098;SDS011;13860;52.370;6.764;2022-08-03T02:35:26;6.85;;;4.47;;
26098;SDS011;13860;52.370;6.764;2022-08-03T02:38:34;8.00;;;4.15;;
26098;SDS011;13860;52.370;6.764;2022-08-03T02:41:44;7.95;;;4.53;;
26098;SDS011;13860;52.370;6.764;2022-08-03T02:44:52;8.65;;;4.18;;
26098;SDS011;13860;52.370;6.764;2022-08-03T02:48:02;8.30;;;4.60;;
26098;SDS011;13860;52.370;6.764;2022-08-03T02:51:11;9.15;;;4.75;;
26098;SDS011;13860;52.370;6.764;2022-08-03T02:54:19;9.20;;;4.80;;
26098;SDS011;13860;52.370;6.764;2022-08-03T02:57:29;11.43;;;5.20;;
26098;SDS011;13860;52.370;6.764;2022-08-03T03:00:38;10.95;;;5.10;;
26098;SDS011;13860;52.370;6.764;2022-08-03T03:03:43;8.80;;;4.50;;
26098;SDS011;13860;52.370;6.764;2022-08-03T03:06:52;10.98;;;5.03;;
26098;SDS011;13860;52.370;6.764;2022-08-03T03:10:03;9.00;;;4.80;;
26098;SDS011;13860;52.370;6.764;2022-08-03T03:13:13;11.80;;;4.70;;
26098;SDS011;13860;52.370;6.764;2022-08-03T03:16:22;7.00;;;4.95;;
26098;SDS011;13860;52.370;6.764;2022-08-03T03:19:29;10.57;;;4.80;;
26098;SDS011;13860;52.370;6.764;2022-08-03T03:22:38;12.57;;;4.78;;
26098;SDS011;13860;52.370;6.764;2022-08-03T03:25:45;7.30;;;4.95;;
26098;SDS011;13860;52.370;6.764;2022-08-03T03:28:51;10.80;;;4.43;;
26098;SDS011;13860;52.370;6.764;2022-08-03T03:31:56;8.82;;;4.63;;
26098;SDS011;13860;52.370;6.764;2022-08-03T03:35:03;11.20;;;5.30;;
26098;SDS011;13860;52.370;6.764;2022-08-03T03:38:12;9.68;;;4.65;;
26098;SDS011;13860;52.370;6.764;2022-08-03T03:41:17;7.97;;;4.70;;
26098;SDS011;13860;52.370;6.764;2022-08-03T03:44:25;8.57;;;5.13;;
26098;SDS011;13860;52.370;6.764;2022-08-03T03:47:33;9.13;;;4.60;;
26098;SDS011;13860;52.370;6.764;2022-08-03T03:50:39;8.93;;;4.55;;
26098;SDS011;13860;52.370;6.764;2022-08-03T03:57:10;8.70;;;4.78;;
26098;SDS011;13860;52.370;6.764;2022-08-03T04:00:16;8.18;;;5.82;;
26098;SDS011;13860;52.370;6.764;2022-08-03T04:03:22;16.45;;;5.10;;
26098;SDS011;13860;52.370;6.764;2022-08-03T04:06:30;16.25;;;5.30;;
26098;SDS011;13860;52.370;6.764;2022-08-03T04:09:53;9.30;;;5.30;;
26098;SDS011;13860;52.370;6.764;2022-08-03T04:13:15;10.98;;;5.03;;
26098;SDS011;13860;52.370;6.764;2022-08-03T04:16:24;9.45;;;4.38;;
26098;SDS011;13860;52.370;6.764;2022-08-03T04:19:33;13.27;;;5.63;;
26098;SDS011;13860;52.370;6.764;2022-08-03T04:22:43;11.43;;;5.05;;
26098;SDS011;13860;52.370;6.764;2022-08-03T04:25:53;12.35;;;5.25;;
26098;SDS011;13860;52.370;6.764;2022-08-03T04:29:01;8.23;;;4.82;;
26098;SDS011;13860;52.370;6.764;2022-08-03T04:32:14;8.83;;;4.77;;
26098;SDS011;13860;52.370;6.764;2022-08-03T04:35:23;11.98;;;5.30;;
26098;SDS011;13860;52.370;6.764;2022-08-03T04:38:53;9.95;;;4.95;;
26098;SDS011;13860;52.370;6.764;2022-08-03T04:42:06;11.43;;;5.10;;
26098;SDS011;13860;52.370;6.764;2022-08-03T04:45:15;12.90;;;5.22;;
26098;SDS011;13860;52.370;6.764;2022-08-03T04:48:21;13.40;;;5.80;;
26098;SDS011;13860;52.370;6.764;2022-08-03T04:51:27;11.55;;;5.82;;
26098;SDS011;13860;52.370;6.764;2022-08-03T04:54:38;12.13;;;5.68;;
26098;SDS011;13860;52.370;6.764;2022-08-03T04:57:54;17.33;;;5.03;;
26098;SDS011;13860;52.370;6.764;2022-08-03T05:00:59;14.07;;;6.00;;
26098;SDS011;13860;52.370;6.764;2022-08-03T05:04:04;13.32;;;5.35;;
26098;SDS011;13860;52.370;6.764;2022-08-03T05:07:09;12.65;;;6.22;;
26098;SDS011;13860;52.370;6.764;2022-08-03T05:10:14;11.93;;;5.25;;
26098;SDS011;13860;52.370;6.764;2022-08-03T05:13:22;10.70;;;5.45;;
26098;SDS011;13860;52.370;6.764;2022-08-03T05:16:29;11.45;;;6.47;;
26098;SDS011;13860;52.370;6.764;2022-08-03T05:19:37;11.30;;;5.50;;
26098;SDS011;13860;52.370;6.764;2022-08-03T05:22:42;16.35;;;6.15;;
26098;SDS011;13860;52.370;6.764;2022-08-03T05:25:47;17.90;;;6.70;;
26098;SDS011;13860;52.370;6.764;2022-08-03T05:28:55;10.57;;;6.43;;
26098;SDS011;13860;52.370;6.764;2022-08-03T05:32:00;18.83;;;6.93;;
26098;SDS011;13860;52.370;6.764;2022-08-03T05:35:08;13.25;;;6.93;;
26098;SDS011;13860;52.370;6.764;2022-08-03T05:38:34;11.73;;;6.57;;
26098;SDS011;13860;52.370;6.764;2022-08-03T05:41:39;20.15;;;6.53;;
26098;SDS011;13860;52.370;6.764;2022-08-03T05:44:50;14.48;;;6.35;;
26098;SDS011;13860;52.370;6.764;2022-08-03T05:47:55;13.75;;;6.30;;
26098;SDS011;13860;52.370;6.764;2022-08-03T05:51:00;13.70;;;6.05;;
26098;SDS011;13860;52.370;6.764;2022-08-03T05:54:07;14.65;;;6.68;;
26098;SDS011;13860;52.370;6.764;2022-08-03T05:57:15;15.70;;;5.93;;
26098;SDS011;13860;52.370;6.764;2022-08-03T06:00:24;14.95;;;6.65;;
26098;SDS011;13860;52.370;6.764;2022-08-03T06:03:29;14.65;;;5.60;;
26098;SDS011;13860;52.370;6.764;2022-08-03T06:06:34;11.15;;;5.93;;
26098;SDS011;13860;52.370;6.764;2022-08-03T06:09:39;14.80;;;6.53;;
26098;SDS011;13860;52.370;6.764;2022-08-03T06:13:04;19.33;;;6.18;;
26098;SDS011;13860;52.370;6.764;2022-08-03T06:16:12;22.45;;;5.85;;
26098;SDS011;13860;52.370;6.764;2022-08-03T06:19:17;15.15;;;5.60;;
26098;SDS011;13860;52.370;6.764;2022-08-03T06:22:23;18.58;;;6.82;;
26098;SDS011;13860;52.370;6.764;2022-08-03T06:25:28;15.13;;;6.20;;
26098;SDS011;13860;52.370;6.764;2022-08-03T06:28:34;15.98;;;5.97;;
26098;SDS011;13860;52.370;6.764;2022-08-03T06:31:56;15.52;;;6.38;;
26098;SDS011;13860;52.370;6.764;2022-08-03T06:35:02;15.40;;;5.13;;
26098;SDS011;13860;52.370;6.764;2022-08-03T06:38:08;22.33;;;5.18;;
26098;SDS011;13860;52.370;6.764;2022-08-03T06:41:13;14.25;;;4.30;;
26098;SDS011;13860;52.370;6.764;2022-08-03T06:44:19;14.82;;;5.18;;
26098;SDS011;13860;52.370;6.764;2022-08-03T06:47:27;23.27;;;4.25;;
26098;SDS011;13860;52.370;6.764;2022-08-03T06:50:33;13.10;;;4.35;;
26098;SDS011;13860;52.370;6.764;2022-08-03T06:53:39;11.75;;;3.95;;
26098;SDS011;13860;52.370;6.764;2022-08-03T06:56:44;15.40;;;4.47;;
26098;SDS011;13860;52.370;6.764;2022-08-03T06:59:49;17.02;;;4.22;;
26098;SDS011;13860;52.370;6.764;2022-08-03T07:03:14;10.95;;;3.85;;
26098;SDS011;13860;52.370;6.764;2022-08-03T07:06:20;15.57;;;3.60;;
26098;SDS011;13860;52.370;6.764;2022-08-03T07:09:25;15.48;;;3.35;;
26098;SDS011;13860;52.370;6.764;2022-08-03T07:12:33;10.45;;;3.45;;
26098;SDS011;13860;52.370;6.764;2022-08-03T07:15:56;17.88;;;3.70;;
26098;SDS011;13860;52.370;6.764;2022-08-03T07:19:04;10.48;;;3.05;;
26098;SDS011;13860;52.370;6.764;2022-08-03T07:22:09;15.13;;;2.85;;
26098;SDS011;13860;52.370;6.764;2022-08-03T07:25:14;14.93;;;3.13;;
26098;SDS011;13860;52.370;6.764;2022-08-03T07:28:20;14.48;;;3.13;;
26098;SDS011;13860;52.370;6.764;2022-08-03T07:31:25;17.65;;;3.15;;
26098;SDS011;13860;52.370;6.764;2022-08-03T07:34:37;8.88;;;2.78;;
26098;SDS011;13860;52.370;6.764;2022-08-03T07:37:42;20.35;;;3.00;;
26098;SDS011;13860;52.370;6.764;2022-08-03T07:40:55;13.48;;;3.15;;
26098;SDS011;13860;52.370;6.764;2022-08-03T07:44:00;12.38;;;2.10;;
26098;SDS011;13860;52.370;6.764;2022-08-03T07:47:05;11.75;;;2.50;;
26098;SDS011;13860;52.370;6.764;2022-08-03T07:50:25;12.15;;;2.35;;
26098;SDS011;13860;52.370;6.764;2022-08-03T07:53:31;8.65;;;2.25;;
26098;SDS011;13860;52.370;6.764;2022-08-03T07:56:47;16.83;;;3.13;;
26098;SDS011;13860;52.370;6.764;2022-08-03T07:59:55;10.32;;;3.25;;
26098;SDS011;13860;52.370;6.764;2022-08-03T08:03:12;17.80;;;2.72;;
26098;SDS011;13860;52.370;6.764;2022-08-03T08:06:20;11.80;;;2.38;;
26098;SDS011;13860;52.370;6.764;2022-08-03T08:09:29;15.23;;;2.70;;
26098;SDS011;13860;52.370;6.764;2022-08-03T08:12:35;7.35;;;2.38;;
26098;SDS011;13860;52.370;6.764;2022-08-03T08:15:41;15.45;;;3.05;;
26098;SDS011;13860;52.370;6.764;2022-08-03T08:18:47;15.43;;;3.80;;
26098;SDS011;13860;52.370;6.764;2022-08-03T08:21:55;9.70;;;2.05;;
26098;SDS011;13860;52.370;6.764;2022-08-03T08:25:03;16.40;;;3.08;;
26098;SDS011;13860;52.370;6.764;2022-08-03T08:28:12;8.18;;;2.25;;
26098;SDS011;13860;52.370;6.764;2022-08-03T08:31:33;15.93;;;2.50;;
26098;SDS011;13860;52.370;6.764;2022-08-03T08:34:39;14.80;;;2.22;;
26098;SDS011;13860;52.370;6.764;2022-08-03T08:37:46;15.68;;;2.42;;
26098;SDS011;13860;52.370;6.764;2022-08-03T08:40:53;15.40;;;2.90;;
26098;SDS011;13860;52.370;6.764;2022-08-03T08:43:59;21.50;;;3.05;;
26098;SDS011;13860;52.370;6.764;2022-08-03T08:47:05;13.73;;;3.40;;
26098;SDS011;13860;52.370;6.764;2022-08-03T08:50:16;23.65;;;2.90;;
26098;SDS011;13860;52.370;6.764;2022-08-03T08:53:31;11.95;;;2.60;;
26098;SDS011;13860;52.370;6.764;2022-08-03T08:56:41;11.40;;;2.20;;
26098;SDS011;13860;52.370;6.764;2022-08-03T08:59:46;11.50;;;2.60;;
26098;SDS011;13860;52.370;6.764;2022-08-03T09:02:57;15.38;;;2.88;;
26098;SDS011;13860;52.370;6.764;2022-08-03T09:06:04;13.98;;;2.72;;
26098;SDS011;13860;52.370;6.764;2022-08-03T09:09:15;12.18;;;2.42;;
26098;SDS011;13860;52.370;6.764;2022-08-03T09:12:42;20.40;;;2.78;;
26098;SDS011;13860;52.370;6.764;2022-08-03T09:15:48;14.27;;;2.65;;
26098;SDS011;13860;52.370;6.764;2022-08-03T09:19:16;22.30;;;3.97;;
26098;SDS011;13860;52.370;6.764;2022-08-03T09:22:24;13.32;;;2.85;;
26098;SDS011;13860;52.370;6.764;2022-08-03T09:25:33;19.38;;;3.17;;
26098;SDS011;13860;52.370;6.764;2022-08-03T09:28:43;19.63;;;3.55;;
26098;SDS011;13860;52.370;6.764;2022-08-03T09:32:01;13.57;;;2.63;;
26098;SDS011;13860;52.370;6.764;2022-08-03T09:35:07;18.48;;;2.72;;
26098;SDS011;13860;52.370;6.764;2022-08-03T09:38:14;23.83;;;2.65;;
26098;SDS011;13860;52.370;6.764;2022-08-03T09:41:27;19.13;;;2.78;;
26098;SDS011;13860;52.370;6.764;2022-08-03T09:44:35;17.20;;;2.60;;
26098;SDS011;13860;52.370;6.764;2022-08-03T09:47:45;19.52;;;3.17;;
26098;SDS011;13860;52.370;6.764;2022-08-03T09:50:53;20.48;;;3.08;;
26098;SDS011;13860;52.370;6.764;2022-08-03T09:54:24;15.48;;;2.80;;
26098;SDS011;13860;52.370;6.764;2022-08-03T09:57:32;29.02;;;3.03;;
26098;SDS011;13860;52.370;6.764;2022-08-03T10:00:51;23.25;;;3.05;;
26098;SDS011;13860;52.370;6.764;2022-08-03T10:03:57;17.65;;;2.70;;
26098;SDS011;13860;52.370;6.764;2022-08-03T10:07:06;24.30;;;3.72;;
26098;SDS011;13860;52.370;6.764;2022-08-03T10:10:12;24.15;;;3.60;;
26098;SDS011;13860;52.370;6.764;2022-08-03T10:13:35;15.00;;;3.17;;
26098;SDS011;13860;52.370;6.764;2022-08-03T10:16:41;22.13;;;3.60;;
26098;SDS011;13860;52.370;6.764;2022-08-03T10:19:48;19.27;;;3.47;;
26098;SDS011;13860;52.370;6.764;2022-08-03T10:22:53;22.30;;;3.40;;
26098;SDS011;13860;52.370;6.764;2022-08-03T10:26:03;26.20;;;4.03;;
26098;SDS011;13860;52.370;6.764;2022-08-03T10:29:17;22.15;;;3.65;;
26098;SDS011;13860;52.370;6.764;2022-08-03T10:32:27;18.67;;;3.67;;
26098;SDS011;13860;52.370;6.764;2022-08-03T10:35:34;27.05;;;3.22;;
26098;SDS011;13860;52.370;6.764;2022-08-03T10:38:46;24.02;;;3.55;;
26098;SDS011;13860;52.370;6.764;2022-08-03T10:41:54;24.00;;;4.65;;
26098;SDS011;13860;52.370;6.764;2022-08-03T10:45:09;22.73;;;4.80;;
26098;SDS011;13860;52.370;6.764;2022-08-03T10:48:18;21.65;;;3.72;;
26098;SDS011;13860;52.370;6.764;2022-08-03T10:51:24;34.97;;;5.10;;
26098;SDS011;13860;52.370;6.764;2022-08-03T10:54:39;24.33;;;4.00;;
26098;SDS011;13860;52.370;6.764;2022-08-03T10:57:58;22.95;;;4.00;;
26098;SDS011;13860;52.370;6.764;2022-08-03T11:01:12;20.50;;;3.95;;
26098;SDS011;13860;52.370;6.764;2022-08-03T11:04:20;39.30;;;4.95;;
26098;SDS011;13860;52.370;6.764;2022-08-03T11:07:27;22.70;;;3.35;;
26098;SDS011;13860;52.370;6.764;2022-08-03T11:10:32;30.25;;;4.78;;
26098;SDS011;13860;52.370;6.764;2022-08-03T11:13:37;26.33;;;4.20;;
26098;SDS011;13860;52.370;6.764;2022-08-03T11:17:09;30.23;;;3.72;;
26098;SDS011;13860;52.370;6.764;2022-08-03T11:20:19;33.13;;;4.63;;
26098;SDS011;13860;52.370;6.764;2022-08-03T11:23:49;28.00;;;4.93;;
26098;SDS011;13860;52.370;6.764;2022-08-03T11:27:16;18.50;;;3.28;;
26098;SDS011;13860;52.370;6.764;2022-08-03T11:30:22;20.42;;;3.30;;
26098;SDS011;13860;52.370;6.764;2022-08-03T11:33:32;33.20;;;3.42;;
26098;SDS011;13860;52.370;6.764;2022-08-03T11:43:47;16.45;;;3.33;;
26098;SDS011;13860;52.370;6.764;2022-08-03T11:46:52;22.88;;;4.53;;
26098;SDS011;13860;52.370;6.764;2022-08-03T11:50:00;28.80;;;4.07;;
26098;SDS011;13860;52.370;6.764;2022-08-03T11:53:15;25.02;;;4.05;;
26098;SDS011;13860;52.370;6.764;2022-08-03T11:56:22;24.55;;;3.90;;
26098;SDS011;13860;52.370;6.764;2022-08-03T11:59:30;22.60;;;3.63;;
26098;SDS011;13860;52.370;6.764;2022-08-03T12:02:36;24.55;;;3.58;;
26098;SDS011;13860;52.370;6.764;2022-08-03T12:05:48;25.95;;;3.72;;
26098;SDS011;13860;52.370;6.764;2022-08-03T12:08:55;17.15;;;3.83;;
26098;SDS011;13860;52.370;6.764;2022-08-03T12:12:00;16.20;;;3.30;;
26098;SDS011;13860;52.370;6.764;2022-08-03T12:15:06;16.48;;;3.10;;
26098;SDS011;13860;52.370;6.764;2022-08-03T12:18:13;26.00;;;3.92;;
26098;SDS011;13860;52.370;6.764;2022-08-03T12:21:23;18.10;;;3.22;;
26098;SDS011;13860;52.370;6.764;2022-08-03T12:24:38;23.58;;;3.50;;
26098;SDS011;13860;52.370;6.764;2022-08-03T12:27:47;18.23;;;3.05;;
26098;SDS011;13860;52.370;6.764;2022-08-03T12:30:53;23.10;;;3.70;;
26098;SDS011;13860;52.370;6.764;2022-08-03T12:33:58;15.23;;;3.42;;
26098;SDS011;13860;52.370;6.764;2022-08-03T12:37:09;22.02;;;2.88;;
26098;SDS011;13860;52.370;6.764;2022-08-03T12:40:23;15.18;;;3.08;;
26098;SDS011;13860;52.370;6.764;2022-08-03T12:43:29;21.50;;;3.13;;
26098;SDS011;13860;52.370;6.764;2022-08-03T12:46:40;26.52;;;3.20;;
26098;SDS011;13860;52.370;6.764;2022-08-03T12:49:49;9.10;;;2.22;;
26098;SDS011;13860;52.370;6.764;2022-08-03T12:53:00;13.63;;;2.53;;
26098;SDS011;13860;52.370;6.764;2022-08-03T12:56:09;17.63;;;2.85;;
26098;SDS011;13860;52.370;6.764;2022-08-03T12:59:23;19.77;;;3.25;;
26098;SDS011;13860;52.370;6.764;2022-08-03T13:02:35;11.95;;;2.55;;
26098;SDS011;13860;52.370;6.764;2022-08-03T13:05:46;10.40;;;2.95;;
26098;SDS011;13860;52.370;6.764;2022-08-03T13:09:05;18.02;;;2.53;;
26098;SDS011;13860;52.370;6.764;2022-08-03T13:12:12;11.23;;;2.15;;
26098;SDS011;13860;52.370;6.764;2022-08-03T13:15:24;19.25;;;2.40;;
26098;SDS011;13860;52.370;6.764;2022-08-03T13:18:48;11.75;;;2.28;;
26098;SDS011;13860;52.370;6.764;2022-08-03T13:21:55;16.67;;;2.85;;
26098;SDS011;13860;52.370;6.764;2022-08-03T13:25:08;16.35;;;2.47;;
26098;SDS011;13860;52.370;6.764;2022-08-03T13:28:13;19.23;;;2.58;;
26098;SDS011;13860;52.370;6.764;2022-08-03T13:31:20;15.23;;;2.10;;
26098;SDS011;13860;52.370;6.764;2022-08-03T13:34:33;13.00;;;2.20;;
26098;SDS011;13860;52.370;6.764;2022-08-03T13:37:39;14.48;;;2.30;;
26098;SDS011;13860;52.370;6.764;2022-08-03T13:40:50;12.73;;;2.75;;
26098;SDS011;13860;52.370;6.764;2022-08-03T13:43:59;12.07;;;2.75;;
26098;SDS011;13860;52.370;6.764;2022-08-03T13:47:24;19.60;;;3.15;;
26098;SDS011;13860;52.370;6.764;2022-08-03T13:50:29;16.25;;;2.50;;
26098;SDS011;13860;52.370;6.764;2022-08-03T13:53:47;12.00;;;2.67;;
26098;SDS011;13860;52.370;6.764;2022-08-03T13:56:57;15.63;;;2.92;;
26098;SDS011;13860;52.370;6.764;2022-08-03T14:00:22;16.10;;;2.38;;
26098;SDS011;13860;52.370;6.764;2022-08-03T14:03:30;12.60;;;2.95;;
26098;SDS011;13860;52.370;6.764;2022-08-03T14:06:35;19.50;;;2.90;;
26098;SDS011;13860;52.370;6.764;2022-08-03T14:09:46;13.75;;;2.47;;
26098;SDS011;13860;52.370;6.764;2022-08-03T14:12:54;17.98;;;2.80;;
26098;SDS011;13860;52.370;6.764;2022-08-03T14:16:03;17.27;;;2.92;;
26098;SDS011;13860;52.370;6.764;2022-08-03T14:19:20;14.50;;;2.50;;
26098;SDS011;13860;52.370;6.764;2022-08-03T14:22:26;15.88;;;3.00;;
26098;SDS011;13860;52.370;6.764;2022-08-03T14:25:34;14.20;;;2.33;;
26098;SDS011;13860;52.370;6.764;2022-08-03T14:28:54;14.02;;;2.00;;
26098;SDS011;13860;52.370;6.764;2022-08-03T14:31:59;16.73;;;3.25;;
26098;SDS011;13860;52.370;6.764;2022-08-03T14:35:13;11.55;;;2.17;;
26098;SDS011;13860;52.370;6.764;2022-08-03T14:38:20;18.58;;;2.65;;
26098;SDS011;13860;52.370;6.764;2022-08-03T14:41:34;14.27;;;2.50;;
26098;SDS011;13860;52.370;6.764;2022-08-03T14:44:42;12.18;;;1.92;;
26098;SDS011;13860;52.370;6.764;2022-08-03T14:47:49;14.23;;;2.38;;
26098;SDS011;13860;52.370;6.764;2022-08-03T14:51:16;10.98;;;2.03;;
26098;SDS011;13860;52.370;6.764;2022-08-03T14:54:27;8.32;;;2.20;;
26098;SDS011;13860;52.370;6.764;2022-08-03T14:57:33;9.70;;;2.05;;
26098;SDS011;13860;52.370;6.764;2022-08-03T15:00:40;9.90;;;2.05;;
26098;SDS011;13860;52.370;6.764;2022-08-03T15:03:45;15.32;;;1.85;;
26098;SDS011;13860;52.370;6.764;2022-08-03T15:06:54;13.15;;;2.40;;
26098;SDS011;13860;52.370;6.764;2022-08-03T15:09:59;21.55;;;2.75;;
26098;SDS011;13860;52.370;6.764;2022-08-03T15:13:04;10.77;;;2.30;;
26098;SDS011;13860;52.370;6.764;2022-08-03T15:16:14;8.23;;;1.60;;
26098;SDS011;13860;52.370;6.764;2022-08-03T15:19:31;17.23;;;2.10;;
26098;SDS011;13860;52.370;6.764;2022-08-03T15:22:59;8.63;;;1.60;;
26098;SDS011;13860;52.370;6.764;2022-08-03T15:26:04;5.63;;;2.00;;
26098;SDS011;13860;52.370;6.764;2022-08-03T15:29:34;10.02;;;2.25;;
26098;SDS011;13860;52.370;6.764;2022-08-03T15:33:02;11.20;;;2.13;;
26098;SDS011;13860;52.370;6.764;2022-08-03T15:36:15;12.60;;;1.90;;
26098;SDS011;13860;52.370;6.764;2022-08-03T15:39:20;10.90;;;1.73;;
26098;SDS011;13860;52.370;6.764;2022-08-03T15:42:25;18.20;;;2.40;;
26098;SDS011;13860;52.370;6.764;2022-08-03T15:45:31;15.40;;;2.03;;
26098;SDS011;13860;52.370;6.764;2022-08-03T15:48:40;15.63;;;2.35;;
26098;SDS011;13860;52.370;6.764;2022-08-03T15:51:45;13.32;;;2.45;;
26098;SDS011;13860;52.370;6.764;2022-08-03T15:54:53;4.55;;;1.35;;
26098;SDS011;13860;52.370;6.764;2022-08-03T15:57:58;10.68;;;1.83;;
26098;SDS011;13860;52.370;6.764;2022-08-03T16:01:24;7.22;;;1.73;;
26098;SDS011;13860;52.370;6.764;2022-08-03T16:04:32;8.10;;;1.95;;
26098;SDS011;13860;52.370;6.764;2022-08-03T16:07:37;6.00;;;1.40;;
26098;SDS011;13860;52.370;6.764;2022-08-03T16:11:04;11.77;;;1.90;;
26098;SDS011;13860;52.370;6.764;2022-08-03T16:14:10;4.85;;;1.27;;
26098;SDS011;13860;52.370;6.764;2022-08-03T16:20:44;7.35;;;1.88;;
26098;SDS011;13860;52.370;6.764;2022-08-03T16:23:50;4.43;;;1.60;;
26098;SDS011;13860;52.370;6.764;2022-08-03T16:26:58;4.18;;;1.08;;
26098;SDS011;13860;52.370;6.764;2022-08-03T16:30:16;5.95;;;1.33;;
26098;SDS011;13860;52.370;6.764;2022-08-03T16:33:21;7.18;;;1.73;;
26098;SDS011;13860;52.370;6.764;2022-08-03T16:36:30;4.90;;;1.20;;
26098;SDS011;13860;52.370;6.764;2022-08-03T16:39:38;10.00;;;1.58;;
26098;SDS011;13860;52.370;6.764;2022-08-03T16:42:45;5.07;;;1.52;;
26098;SDS011;13860;52.370;6.764;2022-08-03T16:46:19;3.55;;;1.30;;
26098;SDS011;13860;52.370;6.764;2022-08-03T16:49:24;3.88;;;1.45;;
26098;SDS011;13860;52.370;6.764;2022-08-03T16:52:54;8.27;;;1.60;;
26098;SDS011;13860;52.370;6.764;2022-08-03T16:55:59;8.57;;;1.80;;
26098;SDS011;13860;52.370;6.764;2022-08-03T16:59:10;3.72;;;1.40;;
26098;SDS011;13860;52.370;6.764;2022-08-03T17:02:17;8.45;;;1.58;;
26098;SDS011;13860;52.370;6.764;2022-08-03T17:05:26;5.60;;;1.38;;
26098;SDS011;13860;52.370;6.764;2022-08-03T17:08:54;5.05;;;1.67;;
26098;SDS011;13860;52.370;6.764;2022-08-03T17:11:59;5.95;;;2.03;;
26098;SDS011;13860;52.370;6.764;2022-08-03T17:15:07;6.63;;;1.88;;
26098;SDS011;13860;52.370;6.764;2022-08-03T17:18:16;7.25;;;2.17;;
26098;SDS011;13860;52.370;6.764;2022-08-03T17:21:27;8.35;;;1.75;;
26098;SDS011;13860;52.370;6.764;2022-08-03T17:24:39;5.10;;;1.55;;
26098;SDS011;13860;52.370;6.764;2022-08-03T17:27:48;10.55;;;1.85;;
26098;SDS011;13860;52.370;6.764;2022-08-03T17:31:15;3.75;;;1.80;;
26098;SDS011;13860;52.370;6.764;2022-08-03T17:34:47;5.35;;;2.42;;
26098;SDS011;13860;52.370;6.764;2022-08-03T17:37:56;6.63;;;2.10;;
26098;SDS011;13860;52.370;6.764;2022-08-03T17:41:07;8.23;;;3.40;;
26098;SDS011;13860;52.370;6.764;2022-08-03T17:44:13;9.30;;;3.42;;
26098;SDS011;13860;52.370;6.764;2022-08-03T17:47:38;7.47;;;2.47;;
26098;SDS011;13860;52.370;6.764;2022-08-03T17:50:45;7.40;;;1.92;;
26098;SDS011;13860;52.370;6.764;2022-08-03T17:53:59;5.55;;;2.28;;
26098;SDS011;13860;52.370;6.764;2022-08-03T17:57:23;7.45;;;2.80;;
26098;SDS011;13860;52.370;6.764;2022-08-03T18:00:53;6.43;;;2.85;;
26098;SDS011;13860;52.370;6.764;2022-08-03T18:04:36;4.55;;;1.80;;
26098;SDS011;13860;52.370;6.764;2022-08-03T18:07:57;5.30;;;2.25;;
26098;SDS011;13860;52.370;6.764;2022-08-03T18:11:12;15.70;;;3.10;;
26098;SDS011;13860;52.370;6.764;2022-08-03T18:14:26;10.60;;;2.00;;
26098;SDS011;13860;52.370;6.764;2022-08-03T18:18:00;5.32;;;1.85;;
26098;SDS011;13860;52.370;6.764;2022-08-03T18:21:13;6.10;;;1.60;;
26098;SDS011;13860;52.370;6.764;2022-08-03T18:24:18;9.10;;;2.05;;
26098;SDS011;13860;52.370;6.764;2022-08-03T18:27:25;10.05;;;2.25;;
26098;SDS011;13860;52.370;6.764;2022-08-03T18:30:53;13.82;;;2.20;;
26098;SDS011;13860;52.370;6.764;2022-08-03T18:33:58;3.78;;;1.83;;
26098;SDS011;13860;52.370;6.764;2022-08-03T18:37:26;3.38;;;1.95;;
26098;SDS011;13860;52.370;6.764;2022-08-03T18:40:52;7.10;;;2.05;;
26098;SDS011;13860;52.370;6.764;2022-08-03T18:43:58;6.13;;;1.98;;
26098;SDS011;13860;52.370;6.764;2022-08-03T18:47:20;8.57;;;1.90;;
26098;SDS011;13860;52.370;6.764;2022-08-03T18:50:56;6.57;;;2.20;;
26098;SDS011;13860;52.370;6.764;2022-08-03T18:54:11;14.75;;;2.45;;
26098;SDS011;13860;52.370;6.764;2022-08-03T18:57:44;9.25;;;2.15;;
26098;SDS011;13860;52.370;6.764;2022-08-03T19:00:56;3.75;;;1.83;;
26098;SDS011;13860;52.370;6.764;2022-08-03T19:04:30;5.55;;;1.55;;
26098;SDS011;13860;52.370;6.764;2022-08-03T19:07:43;4.00;;;1.80;;
26098;SDS011;13860;52.370;6.764;2022-08-03T19:11:01;7.05;;;1.95;;
26098;SDS011;13860;52.370;6.764;2022-08-03T19:14:12;5.75;;;1.75;;